Time;durP1;ratioP1;P1;durP2;ratioP2;P2;SDS_P1;SDS_P2;PMS_P1;PMS_P2;Temp;Humidity;BMP_temperature;BMP_pressure;BME280_temperature;BME280_humidity;BME280_pressure;Samples;Min_cycle;Max_cycle;Signal;HPM_P1;HPM_P2
2022/01/01 00:00:43;;;;;;;46.25;32.40;;;18.20;73.00;;;;;;4929408;29;20179;-75
2022/01/01 00:03:09;;;;;;;46.03;31.48;;;18.20;73.00;;;;;;4929867;29;20483;-75
2022/01/01 00:05:34;;;;;;;39.15;29.65;;;18.20;73.00;;;;;;4929423;29;20499;-74
2022/01/01 00:08:02;;;;;;;39.58;29.90;;;18.20;72.90;;;;;;4929284;29;20040;-74
2022/01/01 00:10:28;;;;;;;39.25;29.75;;;18.20;73.00;;;;;;4929278;29;20043;-74
2022/01/01 00:12:54;;;;;;;39.90;30.73;;;18.20;73.10;;;;;;4929143;29;20080;-74
2022/01/01 00:15:20;;;;;;;43.15;30.80;;;18.20;73.10;;;;;;4929517;29;20668;-75
2022/01/01 00:17:47;;;;;;;41.13;30.27;;;18.10;73.10;;;;;;4928554;29;20718;-75
2022/01/01 00:20:13;;;;;;;42.65;29.65;;;18.10;73.00;;;;;;4929351;29;20070;-75
2022/01/01 00:22:40;;;;;;;38.95;29.45;;;18.10;72.90;;;;;;4929613;29;20035;-75
2022/01/01 00:25:08;;;;;;;41.03;29.73;;;18.10;72.90;;;;;;4928838;29;20028;-75
2022/01/01 00:27:34;;;;;;;39.75;29.20;;;18.10;72.90;;;;;;4929563;29;20036;-75
2022/01/01 00:30:00;;;;;;;40.58;29.77;;;18.10;72.90;;;;;;4929655;29;20044;-75
2022/01/01 00:32:26;;;;;;;42.08;29.52;;;18.10;72.90;;;;;;4928911;29;20526;-74
2022/01/01 00:34:52;;;;;;;37.30;28.73;;;18.10;73.00;;;;;;4929204;29;20046;-76
2022/01/01 00:37:18;;;;;;;39.42;28.90;;;18.10;72.90;;;;;;4928925;29;20023;-76
2022/01/01 00:39:44;;;;;;;41.70;28.60;;;18.10;72.90;;;;;;4930108;29;20102;-76
2022/01/01 00:42:10;;;;;;;41.53;29.67;;;18.10;72.90;;;;;;4928951;29;20705;-75
2022/01/01 00:44:37;;;;;;;40.95;29.02;;;18.10;72.80;;;;;;4929124;29;20062;-76
2022/01/01 00:47:02;;;;;;;38.53;28.25;;;18.10;72.80;;;;;;4929036;29;20199;-75
2022/01/01 00:49:29;;;;;;;39.63;29.25;;;18.10;72.80;;;;;;4930720;29;20110;-75
2022/01/01 00:51:54;;;;;;;39.90;28.55;;;18.00;72.70;;;;;;4932535;29;20032;-75
2022/01/01 00:54:20;;;;;;;37.85;29.10;;;18.10;72.80;;;;;;4932314;29;20515;-75
2022/01/01 00:56:46;;;;;;;40.95;28.90;;;18.00;72.70;;;;;;4933092;29;20554;-75
2022/01/01 00:59:15;;;;;;;38.15;28.20;;;18.00;72.70;;;;;;4935607;29;20035;-75
2022/01/01 01:01:41;;;;;;;37.88;28.65;;;18.00;72.60;;;;;;4935227;29;20023;-76
2022/01/01 01:04:06;;;;;;;37.13;28.63;;;18.00;72.70;;;;;;4933063;29;20047;-75
2022/01/01 01:06:32;;;;;;;38.28;28.48;;;18.00;72.70;;;;;;4933042;29;20487;-75
2022/01/01 01:08:59;;;;;;;37.92;28.23;;;18.00;72.80;;;;;;4932159;29;20479;-75
2022/01/01 01:11:26;;;;;;;34.65;27.67;;;18.00;72.80;;;;;;4932454;29;20036;-75
2022/01/01 01:13:59;;;;;;;35.70;27.90;;;18.00;72.70;;;;;;4932396;29;20032;-75
2022/01/01 01:16:28;;;;;;;36.95;28.65;;;18.00;73.70;;;;;;4932172;29;20036;-75
2022/01/01 01:18:54;;;;;;;36.80;28.17;;;18.00;72.70;;;;;;4931633;29;20028;-75
2022/01/01 01:21:24;;;;;;;37.33;28.48;;;18.00;72.70;;;;;;4931941;29;20034;-75
2022/01/01 01:23:50;;;;;;;31.65;27.02;;;18.00;72.60;;;;;;4931860;29;20038;-74
2022/01/01 01:26:16;;;;;;;36.45;27.30;;;18.00;72.60;;;;;;4932128;29;20035;-74
2022/01/01 01:28:48;;;;;;;35.08;27.30;;;18.00;72.50;;;;;;4932042;29;20593;-75
2022/01/01 01:31:14;;;;;;;37.85;28.17;;;18.00;72.50;;;;;;4931890;29;20052;-75
2022/01/01 01:33:39;;;;;;;37.15;27.92;;;17.90;72.40;;;;;;4931531;29;20545;-74
2022/01/01 01:36:05;;;;;;;36.38;28.05;;;17.90;72.40;;;;;;4931931;29;20040;-74
2022/01/01 01:38:36;;;;;;;35.40;27.63;;;17.90;72.40;;;;;;4931830;29;20028;-74
2022/01/01 01:41:02;;;;;;;34.75;28.08;;;17.90;72.30;;;;;;4931973;29;20042;-74
2022/01/01 01:43:27;;;;;;;36.30;28.02;;;17.90;72.40;;;;;;4925756;29;20551;-73
2022/01/01 01:45:53;;;;;;;35.88;27.65;;;17.90;72.40;;;;;;4894287;29;20050;-75
2022/01/01 01:48:19;;;;;;;36.85;28.17;;;17.90;72.40;;;;;;4893680;29;20029;-75
2022/01/01 01:50:44;;;;;;;36.45;28.17;;;17.90;72.50;;;;;;4893824;29;20056;-74
2022/01/01 01:53:11;;;;;;;38.67;27.83;;;17.90;72.50;;;;;;4893793;29;20028;-75
2022/01/01 01:55:37;;;;;;;37.15;27.02;;;17.90;72.50;;;;;;4893632;29;20036;-76
2022/01/01 01:58:03;;;;;;;34.03;27.85;;;17.90;72.50;;;;;;4893876;29;20475;-75
2022/01/01 02:03:10;;;;;;;37.88;29.13;;;17.90;72.50;;;;;;4894242;29;20032;-76
2022/01/01 02:05:37;;;;;;;39.28;28.92;;;17.90;72.50;;;;;;4894050;29;20341;-76
2022/01/01 02:08:04;;;;;;;35.72;27.52;;;17.90;72.50;;;;;;4893383;29;20040;-76
2022/01/01 02:10:32;;;;;;;34.60;28.13;;;17.90;72.40;;;;;;4893019;29;20037;-76
2022/01/01 02:12:58;;;;;;;34.80;28.80;;;17.90;72.50;;;;;;4893919;29;20032;-76
2022/01/01 02:18:18;;;;;;;32.70;26.73;;;17.90;72.40;;;;;;4893139;29;20075;-76
2022/01/01 02:20:49;;;;;;;39.55;28.60;;;17.80;72.50;;;;;;4893713;29;20044;-76
2022/01/01 02:23:23;;;;;;;36.67;28.67;;;17.80;72.50;;;;;;4894079;29;20461;-76
2022/01/01 02:25:50;;;;;;;39.78;28.55;;;17.80;72.40;;;;;;4894074;29;20028;-75
2022/01/01 02:28:16;;;;;;;34.97;28.10;;;17.80;72.60;;;;;;4893265;29;20040;-76
2022/01/01 02:30:42;;;;;;;34.35;28.00;;;17.80;72.30;;;;;;4893887;29;20555;-75
2022/01/01 02:33:08;;;;;;;34.55;28.50;;;17.80;72.40;;;;;;4893452;29;20164;-75
2022/01/01 02:35:34;;;;;;;36.85;29.15;;;17.80;72.50;;;;;;4893314;29;20108;-76
2022/01/01 02:38:00;;;;;;;35.00;29.35;;;17.80;72.50;;;;;;4894389;29;20068;-75
2022/01/01 02:40:26;;;;;;;33.72;28.65;;;17.80;72.50;;;;;;4895343;29;20139;-77
2022/01/01 02:42:53;;;;;;;35.13;27.67;;;17.80;72.80;;;;;;4895985;29;20025;-76
2022/01/01 02:45:18;;;;;;;36.88;29.75;;;17.80;72.90;;;;;;4894356;29;20666;-76
2022/01/01 02:47:44;;;;;;;40.50;30.15;;;17.80;72.90;;;;;;4893783;29;20507;-76
2022/01/01 02:50:10;;;;;;;36.58;28.73;;;17.80;72.90;;;;;;4892467;29;20185;-76
2022/01/01 02:52:37;;;;;;;35.72;28.63;;;17.80;72.80;;;;;;4892994;29;20675;-75
2022/01/01 02:55:04;;;;;;;34.75;28.55;;;17.80;72.90;;;;;;4892573;29;20043;-75
2022/01/01 02:57:30;;;;;;;34.80;28.63;;;17.80;72.80;;;;;;4892583;29;20365;-74
2022/01/01 02:59:55;;;;;;;35.65;29.08;;;17.80;72.70;;;;;;4892979;29;20865;-74
2022/01/01 03:02:21;;;;;;;35.15;28.40;;;17.80;72.70;;;;;;4892756;29;20044;-75
2022/01/01 03:04:46;;;;;;;37.30;29.08;;;17.80;72.60;;;;;;4892377;29;20041;-75
2022/01/01 03:07:12;;;;;;;38.38;28.58;;;17.80;72.50;;;;;;4892107;29;20040;-75
2022/01/01 03:09:38;;;;;;;36.30;28.17;;;17.80;72.30;;;;;;4892699;29;20029;-75
2022/01/01 03:12:06;;;;;;;38.72;29.58;;;17.80;72.20;;;;;;4892251;29;20393;-75
2022/01/01 03:14:32;;;;;;;36.67;28.30;;;17.80;72.20;;;;;;4891815;29;20460;-75
2022/01/01 03:16:58;;;;;;;34.28;28.50;;;17.80;72.20;;;;;;4892290;29;20566;-75
2022/01/01 03:19:25;;;;;;;35.38;28.20;;;17.80;72.30;;;;;;4892503;29;20049;-75
2022/01/01 03:21:51;;;;;;;35.45;28.70;;;17.80;72.30;;;;;;4892421;29;20050;-75
2022/01/01 03:24:17;;;;;;;36.25;29.88;;;17.80;72.30;;;;;;4892560;29;20882;-75
2022/01/01 03:26:43;;;;;;;36.05;29.27;;;17.80;72.30;;;;;;4892373;29;20580;-75
2022/01/01 03:29:09;;;;;;;36.47;28.75;;;17.80;72.20;;;;;;4891907;29;20854;-75
2022/01/01 03:31:34;;;;;;;33.40;28.33;;;17.70;72.10;;;;;;4892107;29;20400;-74
2022/01/01 03:34:00;;;;;;;35.30;28.15;;;17.80;72.10;;;;;;4892054;29;20488;-75
2022/01/01 03:36:26;;;;;;;32.75;28.10;;;17.80;72.10;;;;;;4892057;29;20032;-75
2022/01/01 03:38:53;;;;;;;35.85;28.70;;;17.80;72.00;;;;;;4891492;29;20733;-74
2022/01/01 03:41:19;;;;;;;32.83;27.88;;;17.70;72.10;;;;;;4891906;29;20036;-75
2022/01/01 03:43:45;;;;;;;33.75;27.52;;;17.80;72.00;;;;;;4891620;29;20507;-75
2022/01/01 03:46:11;;;;;;;34.00;28.40;;;17.80;72.10;;;;;;4891844;29;20036;-75
2022/01/01 03:48:37;;;;;;;34.20;28.00;;;17.70;72.10;;;;;;4892112;29;20028;-75
2022/01/01 03:51:03;;;;;;;38.80;28.73;;;17.80;73.00;;;;;;4891815;29;20047;-75
2022/01/01 03:53:28;;;;;;;36.42;28.95;;;17.80;72.00;;;;;;4891705;29;20507;-75
2022/01/01 03:55:54;;;;;;;38.05;28.77;;;17.70;72.00;;;;;;4891234;29;20035;-75
2022/01/01 03:58:20;;;;;;;35.15;28.77;;;17.70;71.90;;;;;;4891389;29;20036;-76
2022/01/01 04:00:45;;;;;;;35.03;28.95;;;17.70;71.90;;;;;;4891964;29;20029;-75
2022/01/01 04:03:13;;;;;;;31.95;27.40;;;17.70;71.90;;;;;;4891768;29;20483;-75
2022/01/01 04:05:40;;;;;;;32.55;27.67;;;17.70;71.90;;;;;;4892315;29;20835;-75
2022/01/01 04:08:07;;;;;;;35.15;28.15;;;17.70;71.90;;;;;;4891943;29;20021;-75
2022/01/01 04:10:33;;;;;;;34.92;28.45;;;17.70;71.90;;;;;;4891608;29;20143;-75
2022/01/01 04:13:00;;;;;;;35.10;27.92;;;17.70;72.10;;;;;;4891604;29;20476;-74
2022/01/01 04:15:27;;;;;;;33.75;27.70;;;17.70;72.20;;;;;;4891256;29;20044;-75
2022/01/01 04:17:59;;;;;;;33.63;27.73;;;17.70;73.20;;;;;;4891605;29;20135;-74
2022/01/01 04:20:25;;;;;;;34.42;27.65;;;17.70;72.10;;;;;;4891251;29;20484;-74
2022/01/01 04:22:52;;;;;;;33.45;27.05;;;17.70;72.10;;;;;;4892546;29;20077;-74
2022/01/01 04:25:20;;;;;;;34.92;27.67;;;17.70;72.10;;;;;;4897075;29;20088;-75
2022/01/01 04:27:50;;;;;;;37.30;28.33;;;17.70;72.20;;;;;;4898723;29;20036;-74
2022/01/01 04:30:16;;;;;;;35.38;26.95;;;17.70;72.30;;;;;;4895703;29;20123;-74
2022/01/01 04:32:41;;;;;;;33.03;26.55;;;17.70;72.20;;;;;;4895681;29;20111;-74
2022/01/01 04:35:08;;;;;;;31.52;26.52;;;17.60;72.10;;;;;;4895063;29;20076;-75
2022/01/01 04:37:33;;;;;;;33.95;27.10;;;17.70;72.20;;;;;;4896110;29;20528;-75
2022/01/01 04:39:59;;;;;;;30.02;25.70;;;17.60;72.10;;;;;;4896102;29;20135;-75
2022/01/01 04:42:26;;;;;;;32.45;25.85;;;17.60;72.10;;;;;;4895683;29;20033;-74
2022/01/01 04:44:52;;;;;;;32.33;25.27;;;17.70;72.00;;;;;;4895344;29;20087;-74
2022/01/01 04:47:18;;;;;;;32.75;26.45;;;17.60;71.80;;;;;;4894919;29;20032;-76
2022/01/01 04:49:43;;;;;;;30.63;25.65;;;17.60;71.90;;;;;;4895125;29;20092;-76
2022/01/01 04:52:09;;;;;;;30.50;24.75;;;17.60;71.90;;;;;;4894889;29;20061;-75
2022/01/01 04:54:39;;;;;;;32.22;25.67;;;17.60;71.80;;;;;;4894637;29;20096;-76
2022/01/01 04:57:05;;;;;;;31.08;23.98;;;17.60;71.90;;;;;;4894910;29;20028;-75
2022/01/01 04:59:30;;;;;;;28.33;24.55;;;17.60;71.80;;;;;;4894898;29;20131;-76
2022/01/01 05:01:56;;;;;;;29.00;23.35;;;17.60;72.00;;;;;;4894904;29;20028;-76
2022/01/01 05:04:21;;;;;;;30.15;23.13;;;17.70;71.90;;;;;;4894909;29;20033;-75
2022/01/01 05:06:49;;;;;;;26.55;22.45;;;17.70;71.70;;;;;;4894639;29;20129;-76
2022/01/01 05:09:16;;;;;;;25.75;22.02;;;17.80;71.50;;;;;;4895191;29;20115;-76
2022/01/01 05:11:42;;;;;;;26.63;20.90;;;17.90;71.20;;;;;;4894258;29;20037;-75
2022/01/01 05:14:08;;;;;;;25.38;20.60;;;18.00;71.10;;;;;;4894465;29;20748;-76
2022/01/01 05:16:35;;;;;;;23.50;19.45;;;18.10;70.90;;;;;;4892848;29;20032;-76
2022/01/01 05:19:01;;;;;;;23.77;19.40;;;18.10;70.60;;;;;;4894169;29;20048;-76
2022/01/01 05:21:32;;;;;;;25.30;19.48;;;18.20;70.30;;;;;;4894540;29;20489;-74
2022/01/01 05:23:59;;;;;;;23.58;18.08;;;18.30;70.10;;;;;;4894244;29;20028;-75
2022/01/01 05:26:24;;;;;;;24.80;18.48;;;18.40;69.90;;;;;;4894597;29;20024;-74
2022/01/01 05:28:50;;;;;;;22.83;19.17;;;18.50;69.80;;;;;;4893928;29;20317;-75
2022/01/01 05:31:17;;;;;;;21.38;17.25;;;18.60;69.60;;;;;;4894953;29;20039;-76
2022/01/01 05:33:43;;;;;;;24.75;18.13;;;18.60;69.30;;;;;;4894567;29;20032;-74
2022/01/01 05:36:08;;;;;;;22.88;17.85;;;18.70;69.20;;;;;;4893311;29;20103;-75
2022/01/01 05:38:34;;;;;;;20.23;16.27;;;18.70;69.10;;;;;;4893744;29;20032;-75
2022/01/01 05:40:59;;;;;;;21.55;17.08;;;18.70;69.10;;;;;;4893443;29;20052;-75
2022/01/01 05:43:25;;;;;;;22.05;17.80;;;18.80;68.80;;;;;;4893755;29;20033;-75
2022/01/01 05:45:51;;;;;;;22.13;17.35;;;18.90;68.70;;;;;;4893706;29;20029;-75
2022/01/01 05:48:16;;;;;;;21.38;16.70;;;18.90;68.60;;;;;;4894032;29;20044;-76
2022/01/01 05:50:42;;;;;;;20.90;16.13;;;18.90;68.50;;;;;;4893424;29;20033;-75
2022/01/01 05:53:08;;;;;;;19.88;15.73;;;18.90;68.60;;;;;;4893732;29;20096;-76
2022/01/01 05:55:34;;;;;;;20.52;15.82;;;18.90;68.60;;;;;;4893522;29;20037;-76
2022/01/01 05:58:00;;;;;;;21.42;16.48;;;18.90;68.40;;;;;;4894092;29;20115;-76
2022/01/01 06:00:26;;;;;;;19.92;15.95;;;19.00;68.30;;;;;;4893945;29;20557;-77
2022/01/01 06:02:52;;;;;;;20.20;15.63;;;19.00;68.10;;;;;;4893894;29;20044;-74
2022/01/01 06:05:18;;;;;;;20.60;15.77;;;19.00;68.10;;;;;;4895244;29;20049;-75
2022/01/01 06:07:50;;;;;;;19.10;15.55;;;19.10;68.40;;;;;;4896421;29;20043;-75
2022/01/01 06:10:17;;;;;;;18.10;14.55;;;19.10;68.50;;;;;;4897311;29;20029;-75
2022/01/01 06:12:42;;;;;;;19.88;15.10;;;19.10;68.40;;;;;;4894567;29;20080;-75
2022/01/01 06:15:08;;;;;;;18.33;13.98;;;19.10;68.20;;;;;;4893392;29;20033;-74
2022/01/01 06:17:35;;;;;;;18.50;14.73;;;19.20;68.10;;;;;;4893536;29;20037;-74
2022/01/01 06:20:00;;;;;;;17.45;14.52;;;19.20;68.30;;;;;;4893217;29;20041;-75
2022/01/01 06:22:27;;;;;;;17.52;14.30;;;19.20;68.50;;;;;;4893469;29;20032;-75
2022/01/01 06:24:53;;;;;;;17.02;13.77;;;19.30;68.30;;;;;;4892941;29;20029;-76
2022/01/01 06:27:18;;;;;;;17.75;14.18;;;19.40;68.10;;;;;;4893297;29;20107;-76
2022/01/01 06:29:45;;;;;;;20.60;14.43;;;19.40;68.00;;;;;;4892872;29;20038;-75
2022/01/01 06:32:11;;;;;;;17.65;13.90;;;19.40;67.80;;;;;;4892870;29;20091;-75
2022/01/01 06:34:37;;;;;;;16.45;13.80;;;19.40;67.70;;;;;;4893328;29;20017;-75
2022/01/01 06:37:03;;;;;;;16.92;13.90;;;19.40;67.60;;;;;;4893358;29;20029;-75
2022/01/01 06:39:28;;;;;;;18.92;13.10;;;19.40;67.60;;;;;;4893281;29;20107;-75
2022/01/01 06:41:54;;;;;;;16.70;13.68;;;19.40;67.70;;;;;;4893059;29;20111;-74
2022/01/01 06:44:19;;;;;;;19.88;13.75;;;19.30;67.80;;;;;;4892926;29;20056;-75
2022/01/01 06:46:45;;;;;;;16.95;13.02;;;19.30;67.90;;;;;;4892851;29;20028;-76
2022/01/01 06:49:10;;;;;;;18.00;13.43;;;19.30;68.10;;;;;;4892922;29;20588;-75
2022/01/01 06:51:36;;;;;;;17.13;13.18;;;19.20;68.00;;;;;;4893134;29;20719;-75
2022/01/01 06:54:03;;;;;;;16.27;12.88;;;19.20;68.10;;;;;;4892759;29;20699;-74
2022/01/01 06:56:28;;;;;;;17.30;13.02;;;19.20;68.30;;;;;;4892727;29;20020;-75
2022/01/01 06:58:54;;;;;;;16.17;12.93;;;19.10;68.60;;;;;;4892860;29;20116;-75
2022/01/01 07:01:20;;;;;;;15.90;12.48;;;19.10;68.70;;;;;;4890942;29;20029;-75
2022/01/01 07:03:45;;;;;;;15.73;13.07;;;19.10;68.70;;;;;;4893041;29;20040;-75
2022/01/01 07:06:11;;;;;;;18.90;12.93;;;19.00;68.60;;;;;;4892861;29;20025;-76
2022/01/01 07:08:36;;;;;;;16.20;13.23;;;19.00;68.60;;;;;;4892938;29;20039;-76
2022/01/01 07:11:02;;;;;;;16.05;12.80;;;19.00;68.70;;;;;;4893050;29;20068;-76
2022/01/01 07:13:28;;;;;;;15.18;12.43;;;18.90;68.80;;;;;;4892654;29;20115;-77
2022/01/01 07:15:53;;;;;;;15.60;12.73;;;18.90;68.80;;;;;;4892568;29;20039;-76
2022/01/01 07:18:19;;;;;;;16.45;12.32;;;18.90;69.90;;;;;;4892490;29;20029;-74
2022/01/01 07:20:45;;;;;;;16.05;12.80;;;18.90;69.00;;;;;;4892488;29;20489;-75
2022/01/01 07:23:10;;;;;;;15.45;12.50;;;18.90;69.10;;;;;;4892311;29;20029;-75
2022/01/01 07:25:36;;;;;;;15.23;12.27;;;18.80;69.20;;;;;;4892410;29;20039;-74
2022/01/01 07:28:02;;;;;;;16.05;12.43;;;18.80;69.20;;;;;;4891783;29;20032;-74
2022/01/01 07:30:28;;;;;;;16.33;12.40;;;18.80;69.20;;;;;;4892000;29;20036;-75
2022/01/01 07:32:54;;;;;;;14.45;12.20;;;18.80;69.20;;;;;;4892199;29;20048;-74
2022/01/01 07:35:21;;;;;;;14.10;11.95;;;18.80;69.30;;;;;;4892178;29;20052;-75
2022/01/01 07:37:47;;;;;;;16.33;12.65;;;18.70;69.30;;;;;;4892113;29;20052;-75
2022/01/01 07:40:15;;;;;;;14.68;12.05;;;18.70;69.30;;;;;;4891308;29;20452;-75
2022/01/01 07:42:41;;;;;;;18.35;12.18;;;18.70;69.30;;;;;;4891994;29;20025;-75
2022/01/01 07:45:08;;;;;;;15.50;12.07;;;18.70;69.40;;;;;;4891400;29;20607;-73
2022/01/01 07:47:34;;;;;;;16.52;11.70;;;18.70;69.50;;;;;;4891695;29;20106;-74
2022/01/01 07:49:59;;;;;;;14.38;11.57;;;18.70;69.40;;;;;;4892547;29;20036;-75
2022/01/01 07:52:25;;;;;;;15.02;11.98;;;18.70;69.60;;;;;;4893113;29;20099;-74
2022/01/01 07:54:52;;;;;;;17.40;11.88;;;18.60;69.60;;;;;;4894678;29;20045;-76
2022/01/01 07:57:19;;;;;;;17.98;12.27;;;18.60;69.60;;;;;;4892957;29;20021;-74
2022/01/01 07:59:45;;;;;;;14.30;11.77;;;18.60;69.70;;;;;;4894830;29;20076;-76
2022/01/01 08:02:11;;;;;;;15.02;11.43;;;18.60;69.70;;;;;;4896027;29;20033;-73
2022/01/01 08:04:36;;;;;;;16.30;11.45;;;18.60;69.80;;;;;;4895461;29;20052;-73
2022/01/01 08:07:02;;;;;;;13.70;11.10;;;18.60;69.80;;;;;;4895682;29;20052;-75
2022/01/01 08:09:28;;;;;;;15.18;11.20;;;18.60;70.00;;;;;;4895475;29;20594;-75
2022/01/01 08:11:54;;;;;;;14.35;11.48;;;18.50;70.90;;;;;;4895299;29;20088;-75
2022/01/01 08:14:21;;;;;;;18.52;11.88;;;18.50;70.00;;;;;;4895068;29;20133;-74
2022/01/01 08:17:01;;;;;;;16.10;11.90;;;18.50;70.00;;;;;;4895387;29;20040;-76
2022/01/01 08:19:27;;;;;;;15.15;11.65;;;18.50;70.30;;;;;;4895384;29;20495;-75
2022/01/01 08:21:54;;;;;;;14.63;11.77;;;18.50;70.30;;;;;;4894148;29;20025;-76
2022/01/01 08:24:21;;;;;;;15.55;11.40;;;18.50;70.30;;;;;;4895008;29;20040;-75
2022/01/01 08:26:46;;;;;;;15.98;11.55;;;18.50;70.30;;;;;;4894849;29;20032;-75
2022/01/01 08:29:13;;;;;;;13.70;10.65;;;18.50;70.40;;;;;;4895499;29;20413;-76
2022/01/01 08:31:39;;;;;;;15.30;11.38;;;18.40;70.40;;;;;;4895263;29;20063;-75
2022/01/01 08:34:05;;;;;;;14.75;11.27;;;18.40;70.50;;;;;;4895371;29;20060;-76
2022/01/01 08:36:30;;;;;;;15.60;11.05;;;18.40;70.50;;;;;;4894999;29;20069;-76
2022/01/01 08:38:56;;;;;;;15.05;11.82;;;18.40;70.60;;;;;;4895388;29;20044;-77
2022/01/01 08:41:22;;;;;;;14.25;11.35;;;18.40;70.80;;;;;;4895272;29;20048;-76
2022/01/01 08:43:47;;;;;;;14.98;10.95;;;18.40;70.60;;;;;;4895146;29;20057;-76
2022/01/01 08:46:13;;;;;;;13.43;10.60;;;18.40;70.70;;;;;;4894864;29;20056;-76
2022/01/01 08:48:40;;;;;;;14.55;11.38;;;18.40;70.70;;;;;;4895665;29;20515;-76
2022/01/01 08:51:15;;;;;;;16.65;11.02;;;18.30;70.70;;;;;;4895363;29;20088;-76
2022/01/01 08:53:40;;;;;;;14.30;10.70;;;18.40;70.80;;;;;;4895530;29;20087;-75
2022/01/01 08:56:07;;;;;;;14.70;11.13;;;18.30;70.90;;;;;;4894926;29;20488;-76
2022/01/01 08:58:34;;;;;;;12.98;10.50;;;18.30;70.90;;;;;;4894383;29;20036;-76
2022/01/01 09:01:00;;;;;;;13.85;10.55;;;18.30;70.90;;;;;;4894894;29;20029;-76
2022/01/01 09:03:26;;;;;;;13.15;10.73;;;18.30;70.90;;;;;;4894901;29;20186;-76
2022/01/01 09:05:53;;;;;;;15.13;10.63;;;18.30;70.90;;;;;;4894627;29;20033;-76
2022/01/01 09:08:18;;;;;;;13.40;10.75;;;18.30;70.90;;;;;;4894243;29;20119;-76
2022/01/01 09:10:44;;;;;;;14.50;10.52;;;18.30;71.10;;;;;;4894098;29;20120;-75
2022/01/01 09:13:10;;;;;;;13.68;10.85;;;18.30;71.10;;;;;;4894615;29;20028;-76
2022/01/01 09:15:37;;;;;;;14.98;10.50;;;18.30;71.00;;;;;;4894013;29;20036;-75
2022/01/01 09:18:03;;;;;;;13.25;10.32;;;18.30;71.00;;;;;;4894751;29;20108;-76
2022/01/01 09:20:28;;;;;;;13.23;10.00;;;18.20;71.00;;;;;;4894442;29;20561;-75
2022/01/01 09:22:54;;;;;;;13.23;10.85;;;18.30;71.10;;;;;;4894688;29;20061;-75
2022/01/01 09:25:20;;;;;;;18.08;10.65;;;18.20;71.10;;;;;;4894358;29;20049;-75
2022/01/01 09:27:45;;;;;;;12.48;9.95;;;18.20;71.20;;;;;;4894211;29;20028;-76
2022/01/01 09:30:11;;;;;;;13.93;10.35;;;18.30;71.30;;;;;;4894576;29;20042;-75
2022/01/01 09:32:37;;;;;;;11.60;9.10;;;18.30;71.20;;;;;;4894285;29;20105;-75
2022/01/01 09:35:04;;;;;;;14.05;9.93;;;18.20;71.20;;;;;;4895297;29;20025;-77
2022/01/01 09:37:32;;;;;;;12.82;9.82;;;18.20;71.20;;;;;;4896631;29;20061;-76
2022/01/01 09:39:59;;;;;;;15.55;9.68;;;18.20;71.10;;;;;;4899435;29;20032;-73
2022/01/01 09:42:25;;;;;;;19.60;9.55;;;18.20;71.00;;;;;;4895787;29;20040;-73
2022/01/01 09:44:52;;;;;;;13.65;8.75;;;18.30;71.10;;;;;;4894753;29;20476;-73
2022/01/01 09:47:18;;;;;;;21.33;9.65;;;18.30;71.20;;;;;;4893627;29;20100;-69
2022/01/01 09:49:44;;;;;;;31.70;9.75;;;18.30;71.30;;;;;;4894169;29;20566;-72
2022/01/01 09:52:09;;;;;;;23.42;9.35;;;18.30;71.40;;;;;;4894019;29;20473;-73
2022/01/01 09:54:36;;;;;;;19.60;10.10;;;18.30;71.50;;;;;;4893624;29;20029;-73
2022/01/01 09:57:03;;;;;;;27.45;9.88;;;18.40;71.60;;;;;;4893564;29;20118;-75
2022/01/01 09:59:28;;;;;;;28.20;9.73;;;18.30;71.60;;;;;;4893326;29;20725;-75
2022/01/01 10:01:54;;;;;;;20.88;8.95;;;18.40;71.80;;;;;;4893741;29;20032;-74
2022/01/01 10:04:19;;;;;;;28.13;9.35;;;18.40;72.00;;;;;;4893685;29;20029;-74
2022/01/01 10:07:01;;;;;;;24.58;9.60;;;18.40;72.20;;;;;;4893748;29;20037;-73
2022/01/01 10:09:33;;;;;;;25.13;9.38;;;18.40;72.20;;;;;;4894520;29;20024;-79
2022/01/01 10:12:00;;;;;;;23.63;8.98;;;18.40;72.20;;;;;;4894580;29;20085;-78
2022/01/01 10:14:47;;;;;;;27.95;9.35;;;18.40;72.20;;;;;;4894046;29;20060;-77
2022/01/01 10:17:21;;;;;;;28.63;9.20;;;18.40;72.20;;;;;;4894480;29;20116;-78
2022/01/01 10:19:52;;;;;;;20.35;8.27;;;18.40;72.20;;;;;;4893832;29;20492;-78
2022/01/01 10:22:19;;;;;;;20.77;8.45;;;18.40;72.30;;;;;;4893224;29;20119;-78
2022/01/01 10:27:43;;;;;;;20.02;8.57;;;18.40;72.50;;;;;;4893166;29;20105;-75
2022/01/01 10:30:35;;;;;;;16.30;8.15;;;18.30;72.50;;;;;;4892828;29;20064;-77
2022/01/01 10:33:13;;;;;;;21.02;8.98;;;18.40;72.60;;;;;;4893173;29;20032;-77
2022/01/01 10:35:44;;;;;;;22.35;8.10;;;18.30;72.60;;;;;;4892948;29;20033;-77
2022/01/01 10:38:19;;;;;;;19.48;8.00;;;18.30;72.70;;;;;;4892151;29;20076;-79
2022/01/01 10:40:46;;;;;;;22.88;7.80;;;18.30;72.80;;;;;;4893009;29;20070;-76
2022/01/01 10:43:16;;;;;;;20.90;7.68;;;18.30;72.90;;;;;;4893264;29;20031;-76
2022/01/01 10:45:47;;;;;;;21.35;8.30;;;18.30;73.00;;;;;;4930286;29;20039;-76
2022/01/01 10:50:50;;;;;;;26.67;7.90;;;18.30;73.50;;;;;;4930527;29;20032;-79
2022/01/01 10:53:27;;;;;;;23.25;7.43;;;18.30;73.60;;;;;;4930398;29;20051;-76
2022/01/01 10:55:58;;;;;;;21.17;7.90;;;18.30;73.50;;;;;;4931894;29;20078;-76
2022/01/01 10:58:34;;;;;;;20.23;7.90;;;18.30;73.70;;;;;;4931231;29;20032;-74
2022/01/01 11:01:01;;;;;;;17.92;7.70;;;18.30;74.10;;;;;;4930691;29;20435;-74
2022/01/01 11:03:28;;;;;;;20.08;7.32;;;18.30;74.10;;;;;;4930426;29;20027;-77
2022/01/01 11:06:10;;;;;;;17.08;7.18;;;18.30;73.90;;;;;;4930324;29;20046;-78
2022/01/01 11:08:39;;;;;;;16.33;7.82;;;18.30;73.70;;;;;;4930439;29;20027;-77
2022/01/01 11:11:06;;;;;;;14.10;7.13;;;18.30;73.60;;;;;;4930360;29;20069;-77
2022/01/01 11:13:32;;;;;;;12.73;7.13;;;18.20;73.60;;;;;;4930269;29;20028;-74
2022/01/01 11:15:58;;;;;;;19.05;7.30;;;18.20;73.50;;;;;;4930058;29;20020;-74
2022/01/01 11:18:27;;;;;;;11.85;6.90;;;18.20;73.60;;;;;;4930519;29;20054;-73
2022/01/01 11:21:00;;;;;;;12.85;6.78;;;18.20;73.40;;;;;;4933923;29;20054;-74
2022/01/01 11:23:26;;;;;;;19.65;7.30;;;18.20;73.40;;;;;;4934912;29;20031;-75
2022/01/01 11:25:54;;;;;;;14.30;6.85;;;18.20;73.40;;;;;;4931628;29;20346;-76
2022/01/01 11:28:21;;;;;;;12.07;6.70;;;18.20;73.30;;;;;;4930263;29;20036;-73
2022/01/01 11:30:54;;;;;;;14.80;6.70;;;18.20;73.20;;;;;;4929953;29;20078;-73
2022/01/01 11:33:27;;;;;;;14.02;7.03;;;18.20;73.30;;;;;;4928745;29;20059;-74
2022/01/01 11:35:56;;;;;;;16.52;6.53;;;18.20;73.30;;;;;;4929843;29;20024;-73
2022/01/01 11:38:24;;;;;;;14.98;6.60;;;18.20;73.30;;;;;;4929822;29;20024;-73
2022/01/01 11:41:06;;;;;;;19.70;7.40;;;18.20;73.50;;;;;;4929490;29;20070;-73
2022/01/01 11:43:48;;;;;;;12.95;6.50;;;18.20;73.50;;;;;;4929675;29;20047;-75
2022/01/01 11:46:30;;;;;;;22.05;6.45;;;18.20;73.70;;;;;;4929606;29;20031;-73
2022/01/01 11:48:59;;;;;;;13.88;6.03;;;18.30;73.70;;;;;;4929721;29;20024;-72
2022/01/01 11:51:49;;;;;;;23.02;6.28;;;18.30;73.50;;;;;;4929748;29;20110;-75
2022/01/01 11:54:14;;;;;;;15.98;6.25;;;18.40;73.40;;;;;;4929887;29;20450;-75
2022/01/01 11:56:46;;;;;;;13.88;5.57;;;18.40;73.30;;;;;;4929397;29;20468;-74
2022/01/01 11:59:20;;;;;;;12.18;5.88;;;18.50;73.10;;;;;;4929527;29;20055;-74
2022/01/01 12:01:47;;;;;;;15.07;5.85;;;18.60;72.80;;;;;;4929706;29;20031;-75
2022/01/01 12:04:33;;;;;;;13.77;6.22;;;18.60;72.50;;;;;;4929719;29;20083;-75
2022/01/01 12:07:12;;;;;;;11.95;5.43;;;18.70;72.20;;;;;;4929643;29;20032;-75
2022/01/01 12:10:05;;;;;;;11.77;5.60;;;18.70;72.00;;;;;;4929796;29;20035;-77
2022/01/01 12:13:19;;;;;;;12.13;5.18;;;18.70;71.80;;;;;;4930287;29;20091;-76
2022/01/01 12:15:49;;;;;;;15.60;5.78;;;18.80;71.80;;;;;;4888773;29;20041;-76
2022/01/01 12:18:20;;;;;;;10.50;5.15;;;18.80;71.50;;;;;;4887691;29;20097;-75
2022/01/01 12:20:52;;;;;;;8.80;5.25;;;18.90;71.40;;;;;;4908892;29;20047;-76
2022/01/01 12:23:27;;;;;;;9.10;4.38;;;18.90;71.20;;;;;;4928330;29;20539;-76
2022/01/01 12:25:55;;;;;;;11.18;5.30;;;19.00;71.00;;;;;;4929312;29;20039;-76
2022/01/01 12:28:26;;;;;;;11.05;4.88;;;19.00;70.70;;;;;;4929756;29;20028;-76
2022/01/01 12:31:04;;;;;;;8.45;4.65;;;19.10;70.40;;;;;;4929632;29;20781;-76
2022/01/01 12:33:44;;;;;;;6.47;4.57;;;19.20;70.20;;;;;;4929839;29;20034;-76
2022/01/01 12:36:16;;;;;;;10.75;4.95;;;19.30;70.10;;;;;;4929836;29;20023;-76
2022/01/01 12:39:11;;;;;;;9.75;4.82;;;19.30;70.00;;;;;;4929740;29;20024;-76
2022/01/01 12:41:39;;;;;;;8.63;4.80;;;19.30;69.80;;;;;;4920237;29;20043;-76
2022/01/01 12:44:15;;;;;;;7.85;4.50;;;19.30;69.90;;;;;;4913813;29;20559;-76